sensor_id;sensor_type;location;lat;lon;timestamp;pressure;altitude;pressure_sealevel;temperature;humidity
15489;BME280;7846;48.830;9.116;2023-04-06T00:00:42;98082.19;;;3.97;56.99
15489;BME280;7846;48.830;9.116;2023-04-06T00:03:26;98080.13;;;3.90;57.61
15489;BME280;7846;48.830;9.116;2023-04-06T00:06:10;98081.78;;;3.78;57.18
15489;BME280;7846;48.830;9.116;2023-04-06T00:08:55;98083.16;;;3.83;57.24
15489;BME280;7846;48.830;9.116;2023-04-06T00:11:39;98081.50;;;3.70;57.89
15489;BME280;7846;48.830;9.116;2023-04-06T00:14:23;98079.34;;;3.63;58.18
15489;BME280;7846;48.830;9.116;2023-04-06T00:17:07;98079.97;;;3.54;58.21
15489;BME280;7846;48.830;9.116;2023-04-06T00:19:51;98075.81;;;3.52;58.27
15489;BME280;7846;48.830;9.116;2023-04-06T00:22:35;98076.88;;;3.49;58.15
15489;BME280;7846;48.830;9.116;2023-04-06T00:25:19;98072.59;;;3.48;57.95
15489;BME280;7846;48.830;9.116;2023-04-06T00:28:03;98070.72;;;3.50;58.12
15489;BME280;7846;48.830;9.116;2023-04-06T00:30:47;98072.59;;;3.48;58.42
15489;BME280;7846;48.830;9.116;2023-04-06T00:33:32;98075.81;;;3.52;58.04
15489;BME280;7846;48.830;9.116;2023-04-06T00:36:15;98069.06;;;3.49;58.49
15489;BME280;7846;48.830;9.116;2023-04-06T00:38:59;98069.28;;;3.46;58.66
15489;BME280;7846;48.830;9.116;2023-04-06T00:41:46;98064.44;;;3.66;59.15
15489;BME280;7846;48.830;9.116;2023-04-06T00:44:36;98066.69;;;3.83;59.18
15489;BME280;7846;48.830;9.116;2023-04-06T00:47:22;98059.78;;;3.58;58.62
15489;BME280;7846;48.830;9.116;2023-04-06T00:50:07;98057.38;;;3.55;58.60
15489;BME280;7846;48.830;9.116;2023-04-06T00:52:51;98065.81;;;3.58;58.72
15489;BME280;7846;48.830;9.116;2023-04-06T00:55:35;98055.72;;;3.54;59.15
15489;BME280;7846;48.830;9.116;2023-04-06T00:58:20;98058.38;;;3.78;58.85
15489;BME280;7846;48.830;9.116;2023-04-06T01:01:04;98054.09;;;3.53;59.05
15489;BME280;7846;48.830;9.116;2023-04-06T01:03:51;98055.81;;;3.65;59.51
15489;BME280;7846;48.830;9.116;2023-04-06T01:06:35;98054.63;;;3.45;59.27
15489;BME280;7846;48.830;9.116;2023-04-06T01:09:22;98056.72;;;3.27;59.70
15489;BME280;7846;48.830;9.116;2023-04-06T01:12:06;98062.97;;;3.37;59.15
15489;BME280;7846;48.830;9.116;2023-04-06T01:14:51;98056.97;;;3.48;59.01
15489;BME280;7846;48.830;9.116;2023-04-06T01:17:35;98043.06;;;3.49;58.62
15489;BME280;7846;48.830;9.116;2023-04-06T01:20:19;98048.34;;;3.48;58.55
15489;BME280;7846;48.830;9.116;2023-04-06T01:23:03;98045.66;;;3.36;58.75
15489;BME280;7846;48.830;9.116;2023-04-06T01:25:48;98046.41;;;3.38;58.82
15489;BME280;7846;48.830;9.116;2023-04-06T01:28:32;98051.69;;;3.37;59.13
15489;BME280;7846;48.830;9.116;2023-04-06T01:31:16;98039.34;;;3.28;58.96
15489;BME280;7846;48.830;9.116;2023-04-06T01:34:06;98045.03;;;3.46;59.69
15489;BME280;7846;48.830;9.116;2023-04-06T01:36:50;98028.94;;;3.28;59.20
15489;BME280;7846;48.830;9.116;2023-04-06T01:39:34;98034.84;;;3.30;59.13
15489;BME280;7846;48.830;9.116;2023-04-06T01:42:18;98033.19;;;3.29;58.86
15489;BME280;7846;48.830;9.116;2023-04-06T01:45:02;98026.53;;;3.25;58.93
15489;BME280;7846;48.830;9.116;2023-04-06T01:47:46;98029.56;;;3.19;59.50
15489;BME280;7846;48.830;9.116;2023-04-06T01:50:30;98030.09;;;3.11;59.46
15489;BME280;7846;48.830;9.116;2023-04-06T01:53:14;98038.22;;;3.06;59.73
15489;BME280;7846;48.830;9.116;2023-04-06T01:55:59;98031.56;;;3.02;59.40
15489;BME280;7846;48.830;9.116;2023-04-06T01:58:42;98028.44;;;2.97;59.73
15489;BME280;7846;48.830;9.116;2023-04-06T02:01:28;98027.63;;;2.97;60.18
15489;BME280;7846;48.830;9.116;2023-04-06T02:04:12;98026.75;;;2.96;60.45
15489;BME280;7846;48.830;9.116;2023-04-06T02:06:57;98031.97;;;2.83;60.95
15489;BME280;7846;48.830;9.116;2023-04-06T02:09:41;98029.06;;;3.01;60.34
15489;BME280;7846;48.830;9.116;2023-04-06T02:12:25;98026.88;;;2.95;60.54
15489;BME280;7846;48.830;9.116;2023-04-06T02:15:09;98025.41;;;3.03;60.42
15489;BME280;7846;48.830;9.116;2023-04-06T02:17:53;98022.94;;;3.02;59.93
15489;BME280;7846;48.830;9.116;2023-04-06T02:20:37;98019.59;;;3.00;60.01
15489;BME280;7846;48.830;9.116;2023-04-06T02:23:24;98020.63;;;3.23;60.09
15489;BME280;7846;48.830;9.116;2023-04-06T02:26:08;98015.88;;;2.91;60.04
15489;BME280;7846;48.830;9.116;2023-04-06T02:28:53;98021.81;;;2.93;60.00
15489;BME280;7846;48.830;9.116;2023-04-06T02:31:38;98014.22;;;2.90;60.06
15489;BME280;7846;48.830;9.116;2023-04-06T02:34:23;98013.66;;;2.85;60.40
15489;BME280;7846;48.830;9.116;2023-04-06T02:37:07;98016.06;;;2.88;60.40
15489;BME280;7846;48.830;9.116;2023-04-06T02:39:51;98016.06;;;2.88;60.69
15489;BME280;7846;48.830;9.116;2023-04-06T02:42:36;98009.41;;;2.84;60.70
15489;BME280;7846;48.830;9.116;2023-04-06T02:45:21;98012.34;;;2.79;60.96
15489;BME280;7846;48.830;9.116;2023-04-06T02:48:07;98009.00;;;2.90;61.02
15489;BME280;7846;48.830;9.116;2023-04-06T02:50:51;98008.69;;;2.69;61.21
15489;BME280;7846;48.830;9.116;2023-04-06T02:53:35;98017.09;;;2.73;61.22
15489;BME280;7846;48.830;9.116;2023-04-06T02:56:20;98005.16;;;2.70;61.03
15489;BME280;7846;48.830;9.116;2023-04-06T02:59:05;98013.16;;;2.67;61.19
15489;BME280;7846;48.830;9.116;2023-04-06T03:01:49;98012.00;;;2.58;61.43
15489;BME280;7846;48.830;9.116;2023-04-06T03:04:34;98011.31;;;2.29;62.49
15489;BME280;7846;48.830;9.116;2023-04-06T03:07:18;98013.16;;;2.67;61.50
15489;BME280;7846;48.830;9.116;2023-04-06T03:10:05;98011.41;;;2.67;61.04
15489;BME280;7846;48.830;9.116;2023-04-06T03:12:50;98005.97;;;2.71;60.94
15489;BME280;7846;48.830;9.116;2023-04-06T03:15:37;98009.81;;;2.65;60.80
15489;BME280;7846;48.830;9.116;2023-04-06T03:18:23;98001.50;;;2.73;61.68
15489;BME280;7846;48.830;9.116;2023-04-06T03:21:07;98007.94;;;2.54;60.96
15489;BME280;7846;48.830;9.116;2023-04-06T03:23:52;98008.88;;;2.53;61.11
15489;BME280;7846;48.830;9.116;2023-04-06T03:26:36;98015.63;;;2.43;60.86
15489;BME280;7846;48.830;9.116;2023-04-06T03:29:20;98006.38;;;2.52;61.00
15489;BME280;7846;48.830;9.116;2023-04-06T03:32:05;98008.25;;;2.50;60.85
15489;BME280;7846;48.830;9.116;2023-04-06T03:34:49;98017.91;;;2.48;60.56
15489;BME280;7846;48.830;9.116;2023-04-06T03:37:33;98015.41;;;2.46;60.84
15489;BME280;7846;48.830;9.116;2023-04-06T03:40:17;98017.38;;;2.42;60.71
15489;BME280;7846;48.830;9.116;2023-04-06T03:43:01;98014.41;;;2.49;60.86
15489;BME280;7846;48.830;9.116;2023-04-06T03:45:45;98015.31;;;2.48;61.01
15489;BME280;7846;48.830;9.116;2023-04-06T03:48:29;98016.38;;;2.45;60.92
15489;BME280;7846;48.830;9.116;2023-04-06T03:51:13;98019.03;;;2.31;61.02
15489;BME280;7846;48.830;9.116;2023-04-06T03:53:57;98025.13;;;2.30;61.37
15489;BME280;7846;48.830;9.116;2023-04-06T03:56:41;98028.47;;;2.32;61.31
15489;BME280;7846;48.830;9.116;2023-04-06T03:59:27;98020.41;;;2.49;61.59
15489;BME280;7846;48.830;9.116;2023-04-06T04:02:12;98028.69;;;2.29;61.08
15489;BME280;7846;48.830;9.116;2023-04-06T04:04:57;98021.00;;;2.27;61.82
15489;BME280;7846;48.830;9.116;2023-04-06T04:07:41;98026.28;;;2.26;61.87
15489;BME280;7846;48.830;9.116;2023-04-06T04:10:25;98033.44;;;2.22;62.15
15489;BME280;7846;48.830;9.116;2023-04-06T04:13:10;98040.31;;;2.23;61.86
15489;BME280;7846;48.830;9.116;2023-04-06T04:15:53;98030.84;;;2.22;61.44
15489;BME280;7846;48.830;9.116;2023-04-06T04:18:38;98033.41;;;2.09;62.30
15489;BME280;7846;48.830;9.116;2023-04-06T04:21:22;98034.16;;;2.11;62.94
15489;BME280;7846;48.830;9.116;2023-04-06T04:24:06;98036.47;;;2.29;61.93
15489;BME280;7846;48.830;9.116;2023-04-06T04:26:51;98041.16;;;2.36;61.61
15489;BME280;7846;48.830;9.116;2023-04-06T04:29:35;98038.03;;;2.31;61.94
15489;BME280;7846;48.830;9.116;2023-04-06T04:32:20;98033.88;;;2.29;61.66
15489;BME280;7846;48.830;9.116;2023-04-06T04:35:05;98039.69;;;2.32;62.31
15489;BME280;7846;48.830;9.116;2023-04-06T04:37:49;98032.72;;;2.20;62.12
15489;BME280;7846;48.830;9.116;2023-04-06T04:40:33;98037.59;;;2.12;62.31
15489;BME280;7846;48.830;9.116;2023-04-06T04:43:17;98039.53;;;2.08;62.19
15489;BME280;7846;48.830;9.116;2023-04-06T04:46:01;98037.13;;;2.05;62.86
15489;BME280;7846;48.830;9.116;2023-04-06T04:48:46;98030.47;;;2.01;62.87
15489;BME280;7846;48.830;9.116;2023-04-06T04:51:29;98046.06;;;2.01;63.48
15489;BME280;7846;48.830;9.116;2023-04-06T04:54:16;98032.13;;;2.02;63.25
15489;BME280;7846;48.830;9.116;2023-04-06T04:57:00;98036.84;;;2.10;63.67
15489;BME280;7846;48.830;9.116;2023-04-06T04:59:44;98039.03;;;2.16;63.61
15489;BME280;7846;48.830;9.116;2023-04-06T05:02:29;98043.50;;;2.14;63.32
15489;BME280;7846;48.830;9.116;2023-04-06T05:05:13;98041.16;;;2.24;63.61
15489;BME280;7846;48.830;9.116;2023-04-06T05:07:57;98045.19;;;2.28;63.00
15489;BME280;7846;48.830;9.116;2023-04-06T05:10:41;98045.53;;;2.36;63.12
15489;BME280;7846;48.830;9.116;2023-04-06T05:13:25;98056.34;;;2.42;62.95
15489;BME280;7846;48.830;9.116;2023-04-06T05:16:10;98048.06;;;2.63;63.52
15489;BME280;7846;48.830;9.116;2023-04-06T05:18:54;98045.25;;;2.53;62.79
15489;BME280;7846;48.830;9.116;2023-04-06T05:21:40;98053.06;;;2.66;62.96
15489;BME280;7846;48.830;9.116;2023-04-06T05:24:27;98052.34;;;2.77;62.74
15489;BME280;7846;48.830;9.116;2023-04-06T05:27:12;98057.03;;;2.84;62.59
15489;BME280;7846;48.830;9.116;2023-04-06T05:29:56;98052.25;;;2.91;62.38
15489;BME280;7846;48.830;9.116;2023-04-06T05:32:42;98061.94;;;3.02;62.11
15489;BME280;7846;48.830;9.116;2023-04-06T05:35:28;98060.75;;;3.19;62.16
15489;BME280;7846;48.830;9.116;2023-04-06T05:38:46;98058.28;;;3.67;61.74
15489;BME280;7846;48.830;9.116;2023-04-06T05:41:30;98064.09;;;3.46;61.74
15489;BME280;7846;48.830;9.116;2023-04-06T05:44:14;98062.38;;;3.58;61.59
15489;BME280;7846;48.830;9.116;2023-04-06T05:46:58;98062.78;;;3.64;61.13
15489;BME280;7846;48.830;9.116;2023-04-06T05:49:42;98064.09;;;3.83;61.34
15489;BME280;7846;48.830;9.116;2023-04-06T05:52:26;98062.19;;;3.98;60.59
15489;BME280;7846;48.830;9.116;2023-04-06T05:55:10;98066.72;;;4.07;60.15
15489;BME280;7846;48.830;9.116;2023-04-06T05:57:54;98059.06;;;4.17;60.46
15489;BME280;7846;48.830;9.116;2023-04-06T06:00:38;98068.75;;;4.39;59.21
15489;BME280;7846;48.830;9.116;2023-04-06T06:03:22;98058.75;;;4.56;59.34
15489;BME280;7846;48.830;9.116;2023-04-06T06:06:06;98065.75;;;4.67;59.33
15489;BME280;7846;48.830;9.116;2023-04-06T06:08:50;98067.59;;;4.89;58.15
15489;BME280;7846;48.830;9.116;2023-04-06T06:11:34;98072.00;;;5.11;58.37
15489;BME280;7846;48.830;9.116;2023-04-06T06:14:18;98062.69;;;5.31;57.85
15489;BME280;7846;48.830;9.116;2023-04-06T06:17:02;98068.13;;;5.50;57.59
15489;BME280;7846;48.830;9.116;2023-04-06T06:19:48;98071.91;;;5.69;55.96
15489;BME280;7846;48.830;9.116;2023-04-06T06:22:32;98070.03;;;5.93;56.01
15489;BME280;7846;48.830;9.116;2023-04-06T06:25:16;98070.00;;;6.04;56.04
15489;BME280;7846;48.830;9.116;2023-04-06T06:28:00;98070.63;;;6.29;55.11
15489;BME280;7846;48.830;9.116;2023-04-06T06:30:44;98077.97;;;6.35;54.84
15489;BME280;7846;48.830;9.116;2023-04-06T06:33:30;98076.00;;;6.81;54.78
15489;BME280;7846;48.830;9.116;2023-04-06T06:36:14;98084.22;;;6.76;54.21
15489;BME280;7846;48.830;9.116;2023-04-06T06:39:00;98078.69;;;6.90;54.05
15489;BME280;7846;48.830;9.116;2023-04-06T06:41:44;98076.94;;;7.00;53.27
15489;BME280;7846;48.830;9.116;2023-04-06T06:44:28;98075.41;;;6.98;52.79
15489;BME280;7846;48.830;9.116;2023-04-06T06:47:13;98080.53;;;7.30;52.70
15489;BME280;7846;48.830;9.116;2023-04-06T06:49:57;98082.78;;;7.65;52.29
15489;BME280;7846;48.830;9.116;2023-04-06T06:52:44;98080.63;;;7.80;51.34
15489;BME280;7846;48.830;9.116;2023-04-06T06:55:28;98080.19;;;7.75;50.97
15489;BME280;7846;48.830;9.116;2023-04-06T06:58:12;98084.66;;;7.94;51.48
15489;BME280;7846;48.830;9.116;2023-04-06T07:00:58;98084.72;;;8.33;51.01
15489;BME280;7846;48.830;9.116;2023-04-06T07:03:42;98082.81;;;8.35;50.00
15489;BME280;7846;48.830;9.116;2023-04-06T07:06:26;98086.31;;;8.64;49.80
15489;BME280;7846;48.830;9.116;2023-04-06T07:09:10;98086.78;;;8.19;49.50
15489;BME280;7846;48.830;9.116;2023-04-06T07:11:55;98087.41;;;7.92;51.02
15489;BME280;7846;48.830;9.116;2023-04-06T07:14:40;98092.25;;;8.57;50.38
15489;BME280;7846;48.830;9.116;2023-04-06T07:17:25;98096.09;;;8.91;49.55
15489;BME280;7846;48.830;9.116;2023-04-06T07:20:09;98087.47;;;9.18;48.61
15489;BME280;7846;48.830;9.116;2023-04-06T07:22:53;98082.84;;;9.40;48.97
15489;BME280;7846;48.830;9.116;2023-04-06T07:25:38;98091.53;;;9.78;47.49
15489;BME280;7846;48.830;9.116;2023-04-06T07:28:22;98089.56;;;9.89;47.25
15489;BME280;7846;48.830;9.116;2023-04-06T07:31:07;98096.97;;;9.39;47.99
15489;BME280;7846;48.830;9.116;2023-04-06T07:33:51;98091.81;;;9.84;46.95
15489;BME280;7846;48.830;9.116;2023-04-06T07:36:35;98094.03;;;10.52;46.24
15489;BME280;7846;48.830;9.116;2023-04-06T07:39:20;98088.63;;;10.36;46.50
15489;BME280;7846;48.830;9.116;2023-04-06T07:42:04;98091.34;;;10.62;45.78
15489;BME280;7846;48.830;9.116;2023-04-06T07:44:48;98089.06;;;10.67;45.54
15489;BME280;7846;48.830;9.116;2023-04-06T07:47:33;98089.97;;;11.20;45.28
15489;BME280;7846;48.830;9.116;2023-04-06T07:50:19;98095.69;;;10.08;45.38
15489;BME280;7846;48.830;9.116;2023-04-06T07:53:04;98093.63;;;11.01;45.20
15489;BME280;7846;48.830;9.116;2023-04-06T07:55:48;98092.47;;;10.14;45.66
15489;BME280;7846;48.830;9.116;2023-04-06T07:58:32;98090.81;;;10.40;45.39
15489;BME280;7846;48.830;9.116;2023-04-06T08:01:16;98089.97;;;11.20;44.59
15489;BME280;7846;48.830;9.116;2023-04-06T08:04:00;98087.34;;;11.20;43.46
15489;BME280;7846;48.830;9.116;2023-04-06T08:06:46;98082.69;;;12.00;42.76
15489;BME280;7846;48.830;9.116;2023-04-06T08:09:30;98085.81;;;12.03;42.19
15489;BME280;7846;48.830;9.116;2023-04-06T08:12:14;98085.09;;;12.44;42.20
15489;BME280;7846;48.830;9.116;2023-04-06T08:14:58;98084.97;;;12.70;41.26
15489;BME280;7846;48.830;9.116;2023-04-06T08:17:43;98087.75;;;12.52;40.41
15489;BME280;7846;48.830;9.116;2023-04-06T08:20:27;98087.38;;;12.30;40.95
15489;BME280;7846;48.830;9.116;2023-04-06T08:23:11;98083.09;;;12.46;40.81
15489;BME280;7846;48.830;9.116;2023-04-06T08:25:57;98087.03;;;12.17;39.57
15489;BME280;7846;48.830;9.116;2023-04-06T08:28:42;98091.53;;;12.41;38.87
15489;BME280;7846;48.830;9.116;2023-04-06T08:31:26;98084.28;;;12.68;38.56
15489;BME280;7846;48.830;9.116;2023-04-06T08:34:10;98089.75;;;12.74;38.67
15489;BME280;7846;48.830;9.116;2023-04-06T08:36:53;98087.59;;;13.43;37.75
15489;BME280;7846;48.830;9.116;2023-04-06T08:39:37;98081.22;;;13.77;36.91
15489;BME280;7846;48.830;9.116;2023-04-06T08:42:25;98087.56;;;13.51;36.36
15489;BME280;7846;48.830;9.116;2023-04-06T08:45:09;98080.66;;;13.90;36.15
15489;BME280;7846;48.830;9.116;2023-04-06T08:47:54;98080.75;;;13.65;35.73
15489;BME280;7846;48.830;9.116;2023-04-06T08:50:38;98082.00;;;13.86;37.04
15489;BME280;7846;48.830;9.116;2023-04-06T08:53:24;98075.47;;;14.04;36.24
15489;BME280;7846;48.830;9.116;2023-04-06T08:56:09;98070.66;;;13.61;36.49
15489;BME280;7846;48.830;9.116;2023-04-06T08:58:56;98067.34;;;13.67;36.76
15489;BME280;7846;48.830;9.116;2023-04-06T09:01:40;98074.03;;;13.94;36.31
15489;BME280;7846;48.830;9.116;2023-04-06T09:04:26;98071.38;;;14.56;36.04
15489;BME280;7846;48.830;9.116;2023-04-06T09:07:10;98073.91;;;14.49;35.59
15489;BME280;7846;48.830;9.116;2023-04-06T09:09:56;98071.09;;;14.51;34.62
15489;BME280;7846;48.830;9.116;2023-04-06T09:12:43;98064.63;;;14.76;34.94
15489;BME280;7846;48.830;9.116;2023-04-06T09:15:27;98064.56;;;14.62;34.46
15489;BME280;7846;48.830;9.116;2023-04-06T09:18:12;98062.56;;;15.24;33.92
15489;BME280;7846;48.830;9.116;2023-04-06T09:21:04;98064.66;;;15.44;34.29
15489;BME280;7846;48.830;9.116;2023-04-06T09:24:13;98062.84;;;15.59;34.89
15489;BME280;7846;48.830;9.116;2023-04-06T09:26:57;98069.97;;;15.44;33.42
15489;BME280;7846;48.830;9.116;2023-04-06T09:29:44;98073.13;;;14.41;33.72
15489;BME280;7846;48.830;9.116;2023-04-06T09:32:28;98065.66;;;14.44;33.50
15489;BME280;7846;48.830;9.116;2023-04-06T09:35:35;98062.28;;;15.64;33.35
15489;BME280;7846;48.830;9.116;2023-04-06T09:38:19;98065.69;;;15.43;33.06
15489;BME280;7846;48.830;9.116;2023-04-06T09:41:03;98072.16;;;14.88;34.16
15489;BME280;7846;48.830;9.116;2023-04-06T09:43:50;98059.06;;;15.24;32.42
15489;BME280;7846;48.830;9.116;2023-04-06T09:46:39;98060.63;;;14.81;33.16
15489;BME280;7846;48.830;9.116;2023-04-06T09:49:27;98052.72;;;13.48;34.34
15489;BME280;7846;48.830;9.116;2023-04-06T09:52:13;98052.25;;;13.84;34.27
15489;BME280;7846;48.830;9.116;2023-04-06T09:55:03;98049.88;;;14.97;33.70
15489;BME280;7846;48.830;9.116;2023-04-06T09:58:06;98054.16;;;15.51;32.54
15489;BME280;7846;48.830;9.116;2023-04-06T10:01:02;98044.97;;;15.53;31.69
15489;BME280;7846;48.830;9.116;2023-04-06T10:04:08;98048.91;;;16.38;31.47
15489;BME280;7846;48.830;9.116;2023-04-06T10:07:02;98047.06;;;15.13;31.36
15489;BME280;7846;48.830;9.116;2023-04-06T10:09:46;98043.31;;;15.08;31.36
15489;BME280;7846;48.830;9.116;2023-04-06T10:12:31;98051.28;;;15.22;31.32
15489;BME280;7846;48.830;9.116;2023-04-06T10:15:15;98038.13;;;15.59;30.96
15489;BME280;7846;48.830;9.116;2023-04-06T10:18:00;98034.50;;;16.47;32.67
15489;BME280;7846;48.830;9.116;2023-04-06T10:20:50;98042.00;;;17.08;30.43
15489;BME280;7846;48.830;9.116;2023-04-06T10:23:59;98036.22;;;16.55;29.56
15489;BME280;7846;48.830;9.116;2023-04-06T10:26:40;98035.59;;;16.16;30.60
15489;BME280;7846;48.830;9.116;2023-04-06T10:29:25;98038.28;;;16.59;30.70
15489;BME280;7846;48.830;9.116;2023-04-06T10:32:09;98038.63;;;17.21;30.74
15489;BME280;7846;48.830;9.116;2023-04-06T10:35:05;98042.44;;;17.39;29.81
15489;BME280;7846;48.830;9.116;2023-04-06T10:38:03;98034.34;;;16.98;29.14
15489;BME280;7846;48.830;9.116;2023-04-06T10:40:47;98032.56;;;16.19;29.46
15489;BME280;7846;48.830;9.116;2023-04-06T10:43:36;98032.38;;;16.42;31.79
15489;BME280;7846;48.830;9.116;2023-04-06T10:46:25;98030.16;;;16.03;29.83
15489;BME280;7846;48.830;9.116;2023-04-06T10:49:12;98017.16;;;16.30;29.89
15489;BME280;7846;48.830;9.116;2023-04-06T10:51:57;98020.09;;;16.20;29.78
15489;BME280;7846;48.830;9.116;2023-04-06T10:54:42;98017.97;;;16.73;30.48
15489;BME280;7846;48.830;9.116;2023-04-06T10:57:30;98013.75;;;16.36;29.44
15489;BME280;7846;48.830;9.116;2023-04-06T11:00:18;98021.31;;;17.03;31.26
15489;BME280;7846;48.830;9.116;2023-04-06T11:03:03;98016.16;;;16.95;29.80
15489;BME280;7846;48.830;9.116;2023-04-06T11:05:49;98017.72;;;17.80;28.86
15489;BME280;7846;48.830;9.116;2023-04-06T11:08:35;98022.44;;;17.50;29.85
15489;BME280;7846;48.830;9.116;2023-04-06T11:11:22;98015.03;;;17.46;30.36
15489;BME280;7846;48.830;9.116;2023-04-06T11:14:09;98014.41;;;17.78;29.66
15489;BME280;7846;48.830;9.116;2023-04-06T11:16:54;98015.28;;;17.92;29.57
15489;BME280;7846;48.830;9.116;2023-04-06T11:19:38;98012.72;;;18.19;29.81
15489;BME280;7846;48.830;9.116;2023-04-06T11:22:25;98004.41;;;19.08;28.48
15489;BME280;7846;48.830;9.116;2023-04-06T11:25:09;98003.16;;;18.51;29.24
15489;BME280;7846;48.830;9.116;2023-04-06T11:27:53;98001.28;;;19.24;27.50
15489;BME280;7846;48.830;9.116;2023-04-06T11:30:38;98004.00;;;16.86;27.82
15489;BME280;7846;48.830;9.116;2023-04-06T11:33:22;98002.34;;;17.82;29.40
15489;BME280;7846;48.830;9.116;2023-04-06T11:36:06;97988.66;;;17.57;28.13
15489;BME280;7846;48.830;9.116;2023-04-06T11:38:52;97993.47;;;18.36;28.73
15489;BME280;7846;48.830;9.116;2023-04-06T11:41:38;97983.34;;;17.57;28.22
15489;BME280;7846;48.830;9.116;2023-04-06T11:44:38;97987.91;;;18.31;28.51
15489;BME280;7846;48.830;9.116;2023-04-06T11:47:32;97974.94;;;17.47;27.89
15489;BME280;7846;48.830;9.116;2023-04-06T11:50:17;97975.75;;;17.48;28.21
15489;BME280;7846;48.830;9.116;2023-04-06T11:53:02;97974.28;;;17.45;27.69
15489;BME280;7846;48.830;9.116;2023-04-06T11:55:49;97971.88;;;17.15;28.29
15489;BME280;7846;48.830;9.116;2023-04-06T11:58:33;97978.88;;;17.58;28.42
15489;BME280;7846;48.830;9.116;2023-04-06T12:01:18;97976.72;;;17.05;27.55
15489;BME280;7846;48.830;9.116;2023-04-06T12:04:06;97972.75;;;18.19;27.66
15489;BME280;7846;48.830;9.116;2023-04-06T12:06:50;97963.97;;;18.58;27.81
15489;BME280;7846;48.830;9.116;2023-04-06T12:09:36;97965.13;;;18.02;27.21
15489;BME280;7846;48.830;9.116;2023-04-06T12:12:20;97963.25;;;17.96;26.70
15489;BME280;7846;48.830;9.116;2023-04-06T12:15:06;97960.63;;;17.13;28.21
15489;BME280;7846;48.830;9.116;2023-04-06T12:17:50;97962.75;;;18.47;27.69
15489;BME280;7846;48.830;9.116;2023-04-06T12:20:34;97954.72;;;18.60;27.37
15489;BME280;7846;48.830;9.116;2023-04-06T12:23:19;97950.97;;;17.95;26.61
15489;BME280;7846;48.830;9.116;2023-04-06T12:26:03;97949.88;;;17.35;27.87
15489;BME280;7846;48.830;9.116;2023-04-06T12:28:47;97942.22;;;19.01;27.89
15489;BME280;7846;48.830;9.116;2023-04-06T12:31:30;97948.59;;;19.71;25.78
15489;BME280;7846;48.830;9.116;2023-04-06T12:34:19;97940.56;;;19.06;25.58
15489;BME280;7846;48.830;9.116;2023-04-06T12:37:03;97944.47;;;19.04;26.32
15489;BME280;7846;48.830;9.116;2023-04-06T12:39:47;97936.13;;;20.60;24.80
15489;BME280;7846;48.830;9.116;2023-04-06T12:42:32;97933.94;;;20.19;26.22
15489;BME280;7846;48.830;9.116;2023-04-06T12:45:16;97930.94;;;20.09;25.70
15489;BME280;7846;48.830;9.116;2023-04-06T12:48:00;97929.25;;;20.96;25.60
15489;BME280;7846;48.830;9.116;2023-04-06T12:50:44;97931.22;;;21.44;23.59
15489;BME280;7846;48.830;9.116;2023-04-06T12:53:30;97932.75;;;22.00;23.17
15489;BME280;7846;48.830;9.116;2023-04-06T12:56:15;97925.84;;;21.62;24.78
15489;BME280;7846;48.830;9.116;2023-04-06T12:59:01;97932.03;;;21.63;24.83
15489;BME280;7846;48.830;9.116;2023-04-06T13:01:45;97926.66;;;23.76;22.92
15489;BME280;7846;48.830;9.116;2023-04-06T13:04:29;97924.56;;;21.65;23.75
15489;BME280;7846;48.830;9.116;2023-04-06T13:07:13;97920.25;;;19.70;25.06
15489;BME280;7846;48.830;9.116;2023-04-06T13:09:59;97922.34;;;18.37;25.94
15489;BME280;7846;48.830;9.116;2023-04-06T13:12:44;97914.53;;;18.69;25.29
15489;BME280;7846;48.830;9.116;2023-04-06T13:15:29;97923.50;;;19.21;24.80
15489;BME280;7846;48.830;9.116;2023-04-06T13:18:15;97909.03;;;19.93;24.86
15489;BME280;7846;48.830;9.116;2023-04-06T13:21:00;97904.03;;;20.03;24.71
15489;BME280;7846;48.830;9.116;2023-04-06T13:23:44;97906.53;;;19.53;25.13
15489;BME280;7846;48.830;9.116;2023-04-06T13:26:29;97899.19;;;20.19;24.90
15489;BME280;7846;48.830;9.116;2023-04-06T13:29:13;97901.81;;;19.94;24.62
15489;BME280;7846;48.830;9.116;2023-04-06T13:31:56;97901.56;;;20.34;24.08
15489;BME280;7846;48.830;9.116;2023-04-06T13:34:40;97903.28;;;22.42;22.64
15489;BME280;7846;48.830;9.116;2023-04-06T13:37:30;97893.28;;;21.10;24.36
15489;BME280;7846;48.830;9.116;2023-04-06T13:40:15;97900.94;;;22.34;23.80
15489;BME280;7846;48.830;9.116;2023-04-06T13:42:59;97891.53;;;23.02;21.77
15489;BME280;7846;48.830;9.116;2023-04-06T13:45:54;97901.31;;;22.49;23.31
15489;BME280;7846;48.830;9.116;2023-04-06T13:48:39;97891.97;;;21.13;24.05
15489;BME280;7846;48.830;9.116;2023-04-06T13:51:23;97899.81;;;20.46;24.71
15489;BME280;7846;48.830;9.116;2023-04-06T13:54:08;97887.63;;;23.61;22.69
15489;BME280;7846;48.830;9.116;2023-04-06T13:56:57;97892.06;;;22.33;22.96
15489;BME280;7846;48.830;9.116;2023-04-06T13:59:42;97886.75;;;23.04;22.85
15489;BME280;7846;48.830;9.116;2023-04-06T14:02:26;97892.97;;;21.55;23.50
15489;BME280;7846;48.830;9.116;2023-04-06T14:05:12;97879.34;;;21.01;23.55
15489;BME280;7846;48.830;9.116;2023-04-06T14:07:55;97885.50;;;20.09;23.58
15489;BME280;7846;48.830;9.116;2023-04-06T14:10:41;97881.19;;;19.24;24.33
15489;BME280;7846;48.830;9.116;2023-04-06T14:13:29;97875.16;;;20.87;22.57
15489;BME280;7846;48.830;9.116;2023-04-06T14:16:14;97877.78;;;19.94;24.31
15489;BME280;7846;48.830;9.116;2023-04-06T14:18:58;97877.13;;;19.98;23.77
15489;BME280;7846;48.830;9.116;2023-04-06T14:21:44;97873.69;;;20.73;23.61
15489;BME280;7846;48.830;9.116;2023-04-06T14:24:29;97871.88;;;19.47;23.43
15489;BME280;7846;48.830;9.116;2023-04-06T14:27:13;97869.00;;;20.43;24.14
15489;BME280;7846;48.830;9.116;2023-04-06T14:29:58;97880.13;;;20.65;22.71
15489;BME280;7846;48.830;9.116;2023-04-06T14:32:42;97870.75;;;21.36;24.48
15489;BME280;7846;48.830;9.116;2023-04-06T14:35:27;97865.75;;;23.98;22.10
15489;BME280;7846;48.830;9.116;2023-04-06T14:38:12;97867.59;;;23.00;21.20
15489;BME280;7846;48.830;9.116;2023-04-06T14:40:56;97879.00;;;21.95;22.74
15489;BME280;7846;48.830;9.116;2023-04-06T14:43:42;97875.50;;;21.94;22.63
15489;BME280;7846;48.830;9.116;2023-04-06T14:46:26;97859.03;;;22.21;22.13
15489;BME280;7846;48.830;9.116;2023-04-06T14:49:14;97865.16;;;21.01;22.31
15489;BME280;7846;48.830;9.116;2023-04-06T14:51:59;97859.91;;;21.61;23.00
15489;BME280;7846;48.830;9.116;2023-04-06T14:54:43;97862.84;;;21.41;22.59